sensor_id;sensor_type;location;lat;lon;timestamp;temperature;humidity
63017;DHT22;50274;45.640;11.756;2023-05-29T00:01:46;21.00;56.40
63017;DHT22;50274;45.640;11.756;2023-05-29T00:04:12;21.00;56.40
63017;DHT22;50274;45.640;11.756;2023-05-29T00:06:38;21.00;56.50
63017;DHT22;50274;45.640;11.756;2023-05-29T00:09:04;21.00;56.50
63017;DHT22;50274;45.640;11.756;2023-05-29T00:11:30;21.00;56.50
63017;DHT22;50274;45.640;11.756;2023-05-29T00:13:56;21.00;56.50
63017;DHT22;50274;45.640;11.756;2023-05-29T00:16:23;21.00;56.50
63017;DHT22;50274;45.640;11.756;2023-05-29T00:18:49;21.00;56.50
63017;DHT22;50274;45.640;11.756;2023-05-29T00:21:17;21.00;56.50
63017;DHT22;50274;45.640;11.756;2023-05-29T00:23:43;20.90;56.60
63017;DHT22;50274;45.640;11.756;2023-05-29T00:26:09;20.90;56.60
63017;DHT22;50274;45.640;11.756;2023-05-29T00:28:35;20.90;56.60
63017;DHT22;50274;45.640;11.756;2023-05-29T00:31:02;21.00;56.60
63017;DHT22;50274;45.640;11.756;2023-05-29T00:33:28;20.90;56.50
63017;DHT22;50274;45.640;11.756;2023-05-29T00:35:53;20.90;56.50
63017;DHT22;50274;45.640;11.756;2023-05-29T00:38:19;20.80;56.50
63017;DHT22;50274;45.640;11.756;2023-05-29T00:40:45;20.80;56.40
63017;DHT22;50274;45.640;11.756;2023-05-29T00:43:11;20.80;56.50
63017;DHT22;50274;45.640;11.756;2023-05-29T00:45:37;20.80;56.50
63017;DHT22;50274;45.640;11.756;2023-05-29T00:48:03;20.80;56.50
63017;DHT22;50274;45.640;11.756;2023-05-29T00:50:30;20.80;56.60
63017;DHT22;50274;45.640;11.756;2023-05-29T00:52:57;20.80;56.60
63017;DHT22;50274;45.640;11.756;2023-05-29T00:55:24;20.80;56.50
63017;DHT22;50274;45.640;11.756;2023-05-29T00:57:50;20.80;56.50
63017;DHT22;50274;45.640;11.756;2023-05-29T01:00:16;20.80;56.60
63017;DHT22;50274;45.640;11.756;2023-05-29T01:02:44;20.80;56.50
63017;DHT22;50274;45.640;11.756;2023-05-29T01:05:13;20.80;56.50
63017;DHT22;50274;45.640;11.756;2023-05-29T01:07:43;20.80;56.50
63017;DHT22;50274;45.640;11.756;2023-05-29T01:10:10;20.70;56.50
63017;DHT22;50274;45.640;11.756;2023-05-29T01:18:27;20.70;56.40
63017;DHT22;50274;45.640;11.756;2023-05-29T01:24:18;20.70;56.40
63017;DHT22;50274;45.640;11.756;2023-05-29T01:29:38;20.60;56.50
63017;DHT22;50274;45.640;11.756;2023-05-29T01:32:05;20.60;56.50
63017;DHT22;50274;45.640;11.756;2023-05-29T01:34:32;20.60;56.60
63017;DHT22;50274;45.640;11.756;2023-05-29T01:36:58;20.60;56.60
63017;DHT22;50274;45.640;11.756;2023-05-29T01:39:24;20.60;56.60
63017;DHT22;50274;45.640;11.756;2023-05-29T01:41:53;20.60;56.70
63017;DHT22;50274;45.640;11.756;2023-05-29T01:44:20;20.50;56.70
63017;DHT22;50274;45.640;11.756;2023-05-29T01:46:47;20.50;56.80
63017;DHT22;50274;45.640;11.756;2023-05-29T01:49:14;20.40;56.90
63017;DHT22;50274;45.640;11.756;2023-05-29T01:51:41;20.40;56.90
63017;DHT22;50274;45.640;11.756;2023-05-29T01:54:07;20.30;57.00
63017;DHT22;50274;45.640;11.756;2023-05-29T01:56:33;20.30;57.10
63017;DHT22;50274;45.640;11.756;2023-05-29T01:59:02;20.30;57.20
63017;DHT22;50274;45.640;11.756;2023-05-29T02:01:28;20.20;57.30
63017;DHT22;50274;45.640;11.756;2023-05-29T02:03:55;20.20;57.40
63017;DHT22;50274;45.640;11.756;2023-05-29T02:06:21;20.20;57.50
63017;DHT22;50274;45.640;11.756;2023-05-29T02:08:47;20.20;57.60
63017;DHT22;50274;45.640;11.756;2023-05-29T02:11:13;20.20;57.60
63017;DHT22;50274;45.640;11.756;2023-05-29T02:13:39;20.20;57.70
63017;DHT22;50274;45.640;11.756;2023-05-29T02:16:05;20.20;57.70
63017;DHT22;50274;45.640;11.756;2023-05-29T02:18:31;20.10;57.80
63017;DHT22;50274;45.640;11.756;2023-05-29T02:20:57;20.10;57.80
63017;DHT22;50274;45.640;11.756;2023-05-29T02:23:22;20.10;57.90
63017;DHT22;50274;45.640;11.756;2023-05-29T02:25:48;20.10;58.00
63017;DHT22;50274;45.640;11.756;2023-05-29T02:28:14;20.10;58.10
63017;DHT22;50274;45.640;11.756;2023-05-29T02:30:41;20.00;58.20
63017;DHT22;50274;45.640;11.756;2023-05-29T02:33:06;20.10;58.30
63017;DHT22;50274;45.640;11.756;2023-05-29T02:35:32;20.10;58.30
63017;DHT22;50274;45.640;11.756;2023-05-29T02:37:58;20.00;58.40
63017;DHT22;50274;45.640;11.756;2023-05-29T02:40:24;20.00;58.40
63017;DHT22;50274;45.640;11.756;2023-05-29T02:42:50;20.00;58.50
63017;DHT22;50274;45.640;11.756;2023-05-29T02:45:16;20.00;58.50
63017;DHT22;50274;45.640;11.756;2023-05-29T02:47:42;20.00;58.60
63017;DHT22;50274;45.640;11.756;2023-05-29T02:50:08;20.10;58.60
63017;DHT22;50274;45.640;11.756;2023-05-29T02:52:35;20.00;58.60
63017;DHT22;50274;45.640;11.756;2023-05-29T02:55:03;20.10;58.70
63017;DHT22;50274;45.640;11.756;2023-05-29T02:57:29;20.10;58.70
63017;DHT22;50274;45.640;11.756;2023-05-29T02:59:55;20.00;58.70
63017;DHT22;50274;45.640;11.756;2023-05-29T03:02:21;20.00;58.80
63017;DHT22;50274;45.640;11.756;2023-05-29T03:04:47;20.00;58.80
63017;DHT22;50274;45.640;11.756;2023-05-29T03:07:15;20.00;58.80
63017;DHT22;50274;45.640;11.756;2023-05-29T03:09:41;20.00;58.80
63017;DHT22;50274;45.640;11.756;2023-05-29T03:12:07;20.00;58.90
63017;DHT22;50274;45.640;11.756;2023-05-29T03:14:33;20.00;59.00
63017;DHT22;50274;45.640;11.756;2023-05-29T03:17:05;20.00;59.00
63017;DHT22;50274;45.640;11.756;2023-05-29T03:19:31;20.00;59.10
63017;DHT22;50274;45.640;11.756;2023-05-29T03:21:57;20.00;59.10
63017;DHT22;50274;45.640;11.756;2023-05-29T03:24:23;20.00;59.10
63017;DHT22;50274;45.640;11.756;2023-05-29T03:26:52;20.00;59.10
63017;DHT22;50274;45.640;11.756;2023-05-29T03:29:18;19.90;59.10
63017;DHT22;50274;45.640;11.756;2023-05-29T03:31:44;20.00;59.10
63017;DHT22;50274;45.640;11.756;2023-05-29T03:34:10;20.00;59.10
63017;DHT22;50274;45.640;11.756;2023-05-29T03:36:36;20.00;59.20
63017;DHT22;50274;45.640;11.756;2023-05-29T03:39:03;20.00;59.20
63017;DHT22;50274;45.640;11.756;2023-05-29T03:41:28;20.00;59.20
63017;DHT22;50274;45.640;11.756;2023-05-29T03:43:54;20.00;59.20
63017;DHT22;50274;45.640;11.756;2023-05-29T03:46:20;19.90;59.20
63017;DHT22;50274;45.640;11.756;2023-05-29T03:48:46;20.00;59.30
63017;DHT22;50274;45.640;11.756;2023-05-29T03:51:12;20.00;59.30
63017;DHT22;50274;45.640;11.756;2023-05-29T03:53:38;20.00;59.30
63017;DHT22;50274;45.640;11.756;2023-05-29T03:56:03;20.00;59.30
63017;DHT22;50274;45.640;11.756;2023-05-29T03:58:29;20.00;59.30
63017;DHT22;50274;45.640;11.756;2023-05-29T04:00:55;20.00;59.30
63017;DHT22;50274;45.640;11.756;2023-05-29T04:03:21;19.90;59.30
63017;DHT22;50274;45.640;11.756;2023-05-29T04:05:47;19.90;59.30
63017;DHT22;50274;45.640;11.756;2023-05-29T04:08:13;19.90;59.30
63017;DHT22;50274;45.640;11.756;2023-05-29T04:10:39;20.00;59.40
63017;DHT22;50274;45.640;11.756;2023-05-29T04:13:05;20.00;59.30
63017;DHT22;50274;45.640;11.756;2023-05-29T04:15:34;19.90;59.30
63017;DHT22;50274;45.640;11.756;2023-05-29T04:18:00;20.00;59.30
63017;DHT22;50274;45.640;11.756;2023-05-29T04:20:26;20.00;59.30
63017;DHT22;50274;45.640;11.756;2023-05-29T04:22:52;20.00;59.30
63017;DHT22;50274;45.640;11.756;2023-05-29T04:25:17;20.00;59.30
63017;DHT22;50274;45.640;11.756;2023-05-29T04:27:44;20.00;59.30
63017;DHT22;50274;45.640;11.756;2023-05-29T04:30:15;20.00;59.30
63017;DHT22;50274;45.640;11.756;2023-05-29T04:32:41;20.00;59.20
63017;DHT22;50274;45.640;11.756;2023-05-29T04:35:08;20.10;59.20
63017;DHT22;50274;45.640;11.756;2023-05-29T04:37:35;20.00;59.20
63017;DHT22;50274;45.640;11.756;2023-05-29T04:40:08;20.10;59.30
63017;DHT22;50274;45.640;11.756;2023-05-29T04:42:37;20.10;59.30
63017;DHT22;50274;45.640;11.756;2023-05-29T04:45:04;20.10;59.20
63017;DHT22;50274;45.640;11.756;2023-05-29T04:47:30;20.10;59.20
63017;DHT22;50274;45.640;11.756;2023-05-29T04:49:59;20.10;59.20
63017;DHT22;50274;45.640;11.756;2023-05-29T04:52:25;20.10;59.20
63017;DHT22;50274;45.640;11.756;2023-05-29T04:54:51;20.20;59.20
63017;DHT22;50274;45.640;11.756;2023-05-29T04:57:17;20.20;59.30
63017;DHT22;50274;45.640;11.756;2023-05-29T04:59:43;20.20;59.20
63017;DHT22;50274;45.640;11.756;2023-05-29T05:02:09;20.30;59.30
63017;DHT22;50274;45.640;11.756;2023-05-29T05:04:35;20.30;59.30
63017;DHT22;50274;45.640;11.756;2023-05-29T05:07:02;20.30;59.30
63017;DHT22;50274;45.640;11.756;2023-05-29T05:09:29;20.40;59.30
63017;DHT22;50274;45.640;11.756;2023-05-29T05:11:54;20.40;59.30
63017;DHT22;50274;45.640;11.756;2023-05-29T05:14:21;20.50;59.30
63017;DHT22;50274;45.640;11.756;2023-05-29T05:16:47;20.60;59.20
63017;DHT22;50274;45.640;11.756;2023-05-29T05:19:13;20.60;59.20
63017;DHT22;50274;45.640;11.756;2023-05-29T05:21:39;20.70;59.30
63017;DHT22;50274;45.640;11.756;2023-05-29T05:24:05;20.70;59.30
63017;DHT22;50274;45.640;11.756;2023-05-29T05:26:31;20.80;59.30
63017;DHT22;50274;45.640;11.756;2023-05-29T05:28:59;20.80;59.20
63017;DHT22;50274;45.640;11.756;2023-05-29T05:31:29;20.90;59.10
63017;DHT22;50274;45.640;11.756;2023-05-29T05:33:55;21.00;59.10
63017;DHT22;50274;45.640;11.756;2023-05-29T05:36:21;21.10;59.10
63017;DHT22;50274;45.640;11.756;2023-05-29T05:38:47;21.10;59.10
63017;DHT22;50274;45.640;11.756;2023-05-29T05:41:12;21.20;59.10
63017;DHT22;50274;45.640;11.756;2023-05-29T05:43:38;21.20;59.10
63017;DHT22;50274;45.640;11.756;2023-05-29T05:46:04;21.30;59.00
63017;DHT22;50274;45.640;11.756;2023-05-29T05:48:30;21.40;58.80
63017;DHT22;50274;45.640;11.756;2023-05-29T05:50:56;21.50;58.80
63017;DHT22;50274;45.640;11.756;2023-05-29T05:53:22;21.60;58.60
63017;DHT22;50274;45.640;11.756;2023-05-29T05:55:47;21.60;58.50
63017;DHT22;50274;45.640;11.756;2023-05-29T05:58:13;21.70;58.30
63017;DHT22;50274;45.640;11.756;2023-05-29T06:00:40;21.70;58.20
63017;DHT22;50274;45.640;11.756;2023-05-29T06:03:06;21.80;58.10
63017;DHT22;50274;45.640;11.756;2023-05-29T06:05:31;21.90;58.00
63017;DHT22;50274;45.640;11.756;2023-05-29T06:07:59;22.00;58.00
63017;DHT22;50274;45.640;11.756;2023-05-29T06:10:25;22.10;57.80
63017;DHT22;50274;45.640;11.756;2023-05-29T06:12:51;22.20;57.60
63017;DHT22;50274;45.640;11.756;2023-05-29T06:15:17;22.30;57.50
63017;DHT22;50274;45.640;11.756;2023-05-29T06:17:43;22.40;57.50
63017;DHT22;50274;45.640;11.756;2023-05-29T06:20:10;22.50;57.40
63017;DHT22;50274;45.640;11.756;2023-05-29T06:22:39;22.50;57.30
63017;DHT22;50274;45.640;11.756;2023-05-29T06:25:06;22.60;57.10
63017;DHT22;50274;45.640;11.756;2023-05-29T06:27:32;22.70;56.80
63017;DHT22;50274;45.640;11.756;2023-05-29T06:29:57;22.80;56.50
63017;DHT22;50274;45.640;11.756;2023-05-29T06:32:23;22.90;56.20
63017;DHT22;50274;45.640;11.756;2023-05-29T06:34:49;23.00;56.00
63017;DHT22;50274;45.640;11.756;2023-05-29T06:37:15;23.10;55.80
63017;DHT22;50274;45.640;11.756;2023-05-29T06:39:43;23.20;55.70
63017;DHT22;50274;45.640;11.756;2023-05-29T06:42:09;23.30;55.70
63017;DHT22;50274;45.640;11.756;2023-05-29T06:44:35;23.40;55.50
63017;DHT22;50274;45.640;11.756;2023-05-29T06:47:01;23.50;55.30
63017;DHT22;50274;45.640;11.756;2023-05-29T06:49:27;23.50;55.20
63017;DHT22;50274;45.640;11.756;2023-05-29T06:51:52;23.60;55.10
63017;DHT22;50274;45.640;11.756;2023-05-29T06:54:18;23.80;55.10
63017;DHT22;50274;45.640;11.756;2023-05-29T06:56:44;23.90;55.00
63017;DHT22;50274;45.640;11.756;2023-05-29T06:59:10;24.00;54.60
63017;DHT22;50274;45.640;11.756;2023-05-29T07:01:35;24.00;54.20
63017;DHT22;50274;45.640;11.756;2023-05-29T07:04:01;24.10;53.70
63017;DHT22;50274;45.640;11.756;2023-05-29T07:06:27;24.10;53.50
63017;DHT22;50274;45.640;11.756;2023-05-29T07:08:53;24.30;53.30
63017;DHT22;50274;45.640;11.756;2023-05-29T07:11:19;24.30;53.10
63017;DHT22;50274;45.640;11.756;2023-05-29T07:13:45;24.40;52.60
63017;DHT22;50274;45.640;11.756;2023-05-29T07:16:11;24.50;52.50
63017;DHT22;50274;45.640;11.756;2023-05-29T07:18:36;24.60;52.40
63017;DHT22;50274;45.640;11.756;2023-05-29T07:21:02;24.70;52.10
63017;DHT22;50274;45.640;11.756;2023-05-29T07:23:28;24.70;51.70
63017;DHT22;50274;45.640;11.756;2023-05-29T07:25:54;24.80;51.40
63017;DHT22;50274;45.640;11.756;2023-05-29T07:28:19;24.80;51.10
63017;DHT22;50274;45.640;11.756;2023-05-29T07:30:45;24.90;51.10
63017;DHT22;50274;45.640;11.756;2023-05-29T07:33:11;25.00;50.90
63017;DHT22;50274;45.640;11.756;2023-05-29T07:35:37;25.10;50.60
63017;DHT22;50274;45.640;11.756;2023-05-29T07:38:03;25.10;50.40
63017;DHT22;50274;45.640;11.756;2023-05-29T07:40:28;25.20;50.20
63017;DHT22;50274;45.640;11.756;2023-05-29T07:42:54;25.30;49.80
63017;DHT22;50274;45.640;11.756;2023-05-29T07:45:20;25.40;49.70
63017;DHT22;50274;45.640;11.756;2023-05-29T07:47:46;25.40;49.50
63017;DHT22;50274;45.640;11.756;2023-05-29T07:50:13;25.50;49.50
63017;DHT22;50274;45.640;11.756;2023-05-29T07:52:39;25.60;49.60
63017;DHT22;50274;45.640;11.756;2023-05-29T07:55:05;25.60;49.30
63017;DHT22;50274;45.640;11.756;2023-05-29T07:57:31;25.60;48.80
63017;DHT22;50274;45.640;11.756;2023-05-29T07:59:57;25.70;48.90
63017;DHT22;50274;45.640;11.756;2023-05-29T08:02:23;25.70;48.50
63017;DHT22;50274;45.640;11.756;2023-05-29T08:04:48;25.80;48.50
63017;DHT22;50274;45.640;11.756;2023-05-29T08:07:14;25.90;48.80
63017;DHT22;50274;45.640;11.756;2023-05-29T08:09:40;25.90;48.10
63017;DHT22;50274;45.640;11.756;2023-05-29T08:12:06;25.90;46.10
63017;DHT22;50274;45.640;11.756;2023-05-29T08:14:32;26.00;46.00
63017;DHT22;50274;45.640;11.756;2023-05-29T08:16:58;26.10;45.70
63017;DHT22;50274;45.640;11.756;2023-05-29T08:19:24;26.10;45.80
63017;DHT22;50274;45.640;11.756;2023-05-29T08:21:50;26.20;45.90
63017;DHT22;50274;45.640;11.756;2023-05-29T08:24:16;26.30;45.20
63017;DHT22;50274;45.640;11.756;2023-05-29T08:26:42;26.30;45.00
63017;DHT22;50274;45.640;11.756;2023-05-29T08:29:09;26.40;45.00
63017;DHT22;50274;45.640;11.756;2023-05-29T08:31:35;26.40;44.50
63017;DHT22;50274;45.640;11.756;2023-05-29T08:34:01;26.50;43.80
63017;DHT22;50274;45.640;11.756;2023-05-29T08:36:27;26.60;44.00
63017;DHT22;50274;45.640;11.756;2023-05-29T08:38:53;26.60;44.40
63017;DHT22;50274;45.640;11.756;2023-05-29T08:44:03;26.80;44.50
63017;DHT22;50274;45.640;11.756;2023-05-29T08:46:31;26.90;43.60
63017;DHT22;50274;45.640;11.756;2023-05-29T08:48:58;26.90;42.90
63017;DHT22;50274;45.640;11.756;2023-05-29T08:51:30;27.00;42.90
63017;DHT22;50274;45.640;11.756;2023-05-29T08:53:57;27.00;42.30
63017;DHT22;50274;45.640;11.756;2023-05-29T08:56:23;27.00;42.30
63017;DHT22;50274;45.640;11.756;2023-05-29T08:58:49;27.10;42.30
63017;DHT22;50274;45.640;11.756;2023-05-29T09:01:17;27.10;42.40
63017;DHT22;50274;45.640;11.756;2023-05-29T09:03:43;27.20;42.30
63017;DHT22;50274;45.640;11.756;2023-05-29T09:06:08;27.30;41.90
63017;DHT22;50274;45.640;11.756;2023-05-29T09:08:35;27.30;41.70
63017;DHT22;50274;45.640;11.756;2023-05-29T09:11:01;27.40;42.10
63017;DHT22;50274;45.640;11.756;2023-05-29T09:13:27;27.50;41.70
63017;DHT22;50274;45.640;11.756;2023-05-29T09:16:00;27.60;41.00
63017;DHT22;50274;45.640;11.756;2023-05-29T09:18:29;27.60;41.00
63017;DHT22;50274;45.640;11.756;2023-05-29T09:20:55;27.60;40.80
63017;DHT22;50274;45.640;11.756;2023-05-29T09:23:21;27.70;40.40
63017;DHT22;50274;45.640;11.756;2023-05-29T09:25:52;27.70;40.60
63017;DHT22;50274;45.640;11.756;2023-05-29T09:28:19;27.80;40.50
63017;DHT22;50274;45.640;11.756;2023-05-29T09:30:47;27.90;40.80
63017;DHT22;50274;45.640;11.756;2023-05-29T09:33:14;28.00;40.60
63017;DHT22;50274;45.640;11.756;2023-05-29T09:35:42;28.10;40.40
63017;DHT22;50274;45.640;11.756;2023-05-29T09:38:10;28.10;40.30
63017;DHT22;50274;45.640;11.756;2023-05-29T09:40:37;28.20;40.10
63017;DHT22;50274;45.640;11.756;2023-05-29T09:43:11;28.30;40.00
63017;DHT22;50274;45.640;11.756;2023-05-29T09:45:49;28.40;39.90
63017;DHT22;50274;45.640;11.756;2023-05-29T09:48:16;28.50;38.40
63017;DHT22;50274;45.640;11.756;2023-05-29T09:50:43;28.50;38.40
63017;DHT22;50274;45.640;11.756;2023-05-29T09:53:21;28.60;38.80
63017;DHT22;50274;45.640;11.756;2023-05-29T09:55:50;28.50;36.90
63017;DHT22;50274;45.640;11.756;2023-05-29T09:58:17;28.60;37.80
63017;DHT22;50274;45.640;11.756;2023-05-29T10:00:43;28.60;38.50
63017;DHT22;50274;45.640;11.756;2023-05-29T10:03:12;28.70;37.70
63017;DHT22;50274;45.640;11.756;2023-05-29T10:05:39;28.60;37.60
63017;DHT22;50274;45.640;11.756;2023-05-29T10:08:09;28.70;38.00
63017;DHT22;50274;45.640;11.756;2023-05-29T10:10:37;28.80;38.10
63017;DHT22;50274;45.640;11.756;2023-05-29T10:13:06;28.90;38.40
63017;DHT22;50274;45.640;11.756;2023-05-29T10:15:36;29.10;38.50
63017;DHT22;50274;45.640;11.756;2023-05-29T10:18:05;29.20;38.20
63017;DHT22;50274;45.640;11.756;2023-05-29T10:20:32;29.30;37.60
63017;DHT22;50274;45.640;11.756;2023-05-29T10:23:00;29.20;35.60
63017;DHT22;50274;45.640;11.756;2023-05-29T10:25:27;29.20;36.20
63017;DHT22;50274;45.640;11.756;2023-05-29T10:27:58;29.20;37.00
63017;DHT22;50274;45.640;11.756;2023-05-29T10:36:09;29.40;34.00
63017;DHT22;50274;45.640;11.756;2023-05-29T10:38:39;29.40;35.20
63017;DHT22;50274;45.640;11.756;2023-05-29T10:46:25;29.60;35.60
63017;DHT22;50274;45.640;11.756;2023-05-29T10:49:19;29.80;36.30
63017;DHT22;50274;45.640;11.756;2023-05-29T10:51:45;30.00;36.10
63017;DHT22;50274;45.640;11.756;2023-05-29T10:54:11;30.00;34.90
63017;DHT22;50274;45.640;11.756;2023-05-29T10:56:39;29.90;35.10
63017;DHT22;50274;45.640;11.756;2023-05-29T10:59:07;29.90;34.40
63017;DHT22;50274;45.640;11.756;2023-05-29T11:01:33;29.90;34.10
63017;DHT22;50274;45.640;11.756;2023-05-29T11:06:52;30.00;34.00
63017;DHT22;50274;45.640;11.756;2023-05-29T11:12:28;30.30;34.40
63017;DHT22;50274;45.640;11.756;2023-05-29T11:15:06;30.40;34.20
63017;DHT22;50274;45.640;11.756;2023-05-29T11:20:16;30.50;32.80
63017;DHT22;50274;45.640;11.756;2023-05-29T11:25:20;30.60;33.30
63017;DHT22;50274;45.640;11.756;2023-05-29T11:27:46;30.70;33.70
63017;DHT22;50274;45.640;11.756;2023-05-29T11:30:12;30.80;33.80
63017;DHT22;50274;45.640;11.756;2023-05-29T11:32:39;31.00;34.10
63017;DHT22;50274;45.640;11.756;2023-05-29T11:35:09;31.10;34.40
63017;DHT22;50274;45.640;11.756;2023-05-29T11:37:36;31.20;34.50
63017;DHT22;50274;45.640;11.756;2023-05-29T11:40:04;31.10;32.90
63017;DHT22;50274;45.640;11.756;2023-05-29T11:42:31;31.10;32.90
63017;DHT22;50274;45.640;11.756;2023-05-29T11:45:10;31.20;33.10
63017;DHT22;50274;45.640;11.756;2023-05-29T11:50:22;31.40;32.30
63017;DHT22;50274;45.640;11.756;2023-05-29T11:52:48;31.40;31.40
63017;DHT22;50274;45.640;11.756;2023-05-29T11:55:14;31.50;31.70
63017;DHT22;50274;45.640;11.756;2023-05-29T11:57:40;31.40;31.70
63017;DHT22;50274;45.640;11.756;2023-05-29T12:00:06;31.30;30.10
63017;DHT22;50274;45.640;11.756;2023-05-29T12:02:33;31.20;29.80
63017;DHT22;50274;45.640;11.756;2023-05-29T12:05:05;31.30;30.60
63017;DHT22;50274;45.640;11.756;2023-05-29T12:07:35;31.40;30.90
63017;DHT22;50274;45.640;11.756;2023-05-29T12:10:15;31.50;30.60
63017;DHT22;50274;45.640;11.756;2023-05-29T12:12:42;31.40;29.30
63017;DHT22;50274;45.640;11.756;2023-05-29T12:15:09;31.30;29.80
63017;DHT22;50274;45.640;11.756;2023-05-29T12:17:35;31.30;30.30
63017;DHT22;50274;45.640;11.756;2023-05-29T12:20:05;31.40;30.70
63017;DHT22;50274;45.640;11.756;2023-05-29T12:22:35;31.40;30.30
63017;DHT22;50274;45.640;11.756;2023-05-29T12:25:12;31.40;29.90
63017;DHT22;50274;45.640;11.756;2023-05-29T12:27:43;31.60;30.60
63017;DHT22;50274;45.640;11.756;2023-05-29T12:30:10;31.60;30.50
63017;DHT22;50274;45.640;11.756;2023-05-29T12:32:39;31.70;30.20
63017;DHT22;50274;45.640;11.756;2023-05-29T12:35:17;31.70;30.50
63017;DHT22;50274;45.640;11.756;2023-05-29T12:37:48;31.80;30.70
63017;DHT22;50274;45.640;11.756;2023-05-29T12:40:19;31.90;31.10
63017;DHT22;50274;45.640;11.756;2023-05-29T12:42:47;32.10;31.20
63017;DHT22;50274;45.640;11.756;2023-05-29T12:45:13;32.30;31.40
63017;DHT22;50274;45.640;11.756;2023-05-29T12:48:00;32.40;31.40
63017;DHT22;50274;45.640;11.756;2023-05-29T12:50:30;32.40;30.90
63017;DHT22;50274;45.640;11.756;2023-05-29T12:53:16;32.30;31.60
63017;DHT22;50274;45.640;11.756;2023-05-29T12:55:43;32.20;31.60
63017;DHT22;50274;45.640;11.756;2023-05-29T12:58:14;31.90;31.90
63017;DHT22;50274;45.640;11.756;2023-05-29T13:00:42;31.80;32.40
63017;DHT22;50274;45.640;11.756;2023-05-29T13:03:08;31.80;31.80
63017;DHT22;50274;45.640;11.756;2023-05-29T13:05:34;32.00;31.60
63017;DHT22;50274;45.640;11.756;2023-05-29T13:08:00;32.10;31.80
63017;DHT22;50274;45.640;11.756;2023-05-29T13:10:27;32.20;31.80
63017;DHT22;50274;45.640;11.756;2023-05-29T13:12:54;32.20;31.80
63017;DHT22;50274;45.640;11.756;2023-05-29T13:15:24;32.20;30.80
63017;DHT22;50274;45.640;11.756;2023-05-29T13:17:51;32.20;31.10
63017;DHT22;50274;45.640;11.756;2023-05-29T13:20:18;32.20;31.00
63017;DHT22;50274;45.640;11.756;2023-05-29T13:22:44;32.20;31.40
63017;DHT22;50274;45.640;11.756;2023-05-29T13:25:12;32.30;31.60
63017;DHT22;50274;45.640;11.756;2023-05-29T13:27:40;32.30;31.70
63017;DHT22;50274;45.640;11.756;2023-05-29T13:30:08;32.30;30.80
63017;DHT22;50274;45.640;11.756;2023-05-29T13:32:34;32.30;30.90
63017;DHT22;50274;45.640;11.756;2023-05-29T13:35:01;32.30;31.30
63017;DHT22;50274;45.640;11.756;2023-05-29T13:37:28;32.20;31.00
63017;DHT22;50274;45.640;11.756;2023-05-29T13:39:54;32.10;30.90
63017;DHT22;50274;45.640;11.756;2023-05-29T13:42:20;31.90;31.20
63017;DHT22;50274;45.640;11.756;2023-05-29T13:44:47;31.70;31.10
63017;DHT22;50274;45.640;11.756;2023-05-29T13:47:13;31.60;31.50
63017;DHT22;50274;45.640;11.756;2023-05-29T13:49:39;31.60;31.80
63017;DHT22;50274;45.640;11.756;2023-05-29T13:52:06;31.50;32.30
63017;DHT22;50274;45.640;11.756;2023-05-29T13:54:32;31.60;32.60
63017;DHT22;50274;45.640;11.756;2023-05-29T13:57:05;31.60;31.60
63017;DHT22;50274;45.640;11.756;2023-05-29T13:59:35;31.70;31.60
63017;DHT22;50274;45.640;11.756;2023-05-29T14:02:02;31.70;31.40
63017;DHT22;50274;45.640;11.756;2023-05-29T14:04:31;31.60;31.00
63017;DHT22;50274;45.640;11.756;2023-05-29T14:06:57;31.40;30.90
63017;DHT22;50274;45.640;11.756;2023-05-29T14:09:24;31.30;30.60
63017;DHT22;50274;45.640;11.756;2023-05-29T14:12:00;30.90;31.60
63017;DHT22;50274;45.640;11.756;2023-05-29T14:14:27;30.50;32.50
63017;DHT22;50274;45.640;11.756;2023-05-29T14:16:54;30.30;32.90
63017;DHT22;50274;45.640;11.756;2023-05-29T14:19:23;30.20;33.50
63017;DHT22;50274;45.640;11.756;2023-05-29T14:21:49;30.30;33.80
63017;DHT22;50274;45.640;11.756;2023-05-29T14:24:15;30.30;33.50
63017;DHT22;50274;45.640;11.756;2023-05-29T14:26:43;30.40;32.80
63017;DHT22;50274;45.640;11.756;2023-05-29T14:29:11;30.30;32.60
63017;DHT22;50274;45.640;11.756;2023-05-29T14:31:39;30.30;32.80
63017;DHT22;50274;45.640;11.756;2023-05-29T14:34:05;30.20;33.70
63017;DHT22;50274;45.640;11.756;2023-05-29T14:36:30;30.00;34.20
63017;DHT22;50274;45.640;11.756;2023-05-29T14:38:56;29.90;34.60
63017;DHT22;50274;45.640;11.756;2023-05-29T14:41:22;29.80;34.80
63017;DHT22;50274;45.640;11.756;2023-05-29T14:43:48;29.70;34.50
63017;DHT22;50274;45.640;11.756;2023-05-29T14:46:14;29.60;34.60
63017;DHT22;50274;45.640;11.756;2023-05-29T14:48:39;29.40;34.70
63017;DHT22;50274;45.640;11.756;2023-05-29T14:51:05;29.30;34.30
63017;DHT22;50274;45.640;11.756;2023-05-29T14:53:31;29.10;34.60
63017;DHT22;50274;45.640;11.756;2023-05-29T14:55:58;29.10;34.90
63017;DHT22;50274;45.640;11.756;2023-05-29T14:58:23;29.00;35.00
63017;DHT22;50274;45.640;11.756;2023-05-29T15:00:49;28.90;35.20
63017;DHT22;50274;45.640;11.756;2023-05-29T15:03:15;28.90;35.50
63017;DHT22;50274;45.640;11.756;2023-05-29T15:05:41;28.80;35.80
63017;DHT22;50274;45.640;11.756;2023-05-29T15:08:07;28.80;35.90
63017;DHT22;50274;45.640;11.756;2023-05-29T15:10:32;28.70;36.20
63017;DHT22;50274;45.640;11.756;2023-05-29T15:12:58;28.60;36.80
63017;DHT22;50274;45.640;11.756;2023-05-29T15:15:27;28.50;37.30
63017;DHT22;50274;45.640;11.756;2023-05-29T15:17:53;28.30;37.80
63017;DHT22;50274;45.640;11.756;2023-05-29T15:20:25;28.10;37.90
63017;DHT22;50274;45.640;11.756;2023-05-29T15:22:52;28.00;38.20
63017;DHT22;50274;45.640;11.756;2023-05-29T15:25:19;27.80;38.70
63017;DHT22;50274;45.640;11.756;2023-05-29T15:27:46;27.70;39.10
63017;DHT22;50274;45.640;11.756;2023-05-29T15:30:14;27.60;39.50
63017;DHT22;50274;45.640;11.756;2023-05-29T15:32:41;27.50;39.80
63017;DHT22;50274;45.640;11.756;2023-05-29T15:35:08;27.40;40.00
63017;DHT22;50274;45.640;11.756;2023-05-29T15:37:34;27.30;40.40
63017;DHT22;50274;45.640;11.756;2023-05-29T15:40:01;27.30;40.80
63017;DHT22;50274;45.640;11.756;2023-05-29T15:42:27;27.20;40.90
63017;DHT22;50274;45.640;11.756;2023-05-29T15:44:53;27.30;41.10
63017;DHT22;50274;45.640;11.756;2023-05-29T15:47:18;27.20;41.20
63017;DHT22;50274;45.640;11.756;2023-05-29T15:49:44;27.30;41.40
63017;DHT22;50274;45.640;11.756;2023-05-29T15:52:10;27.20;41.70
63017;DHT22;50274;45.640;11.756;2023-05-29T15:54:36;27.20;41.80